sensor_id;sensor_type;location;lat;lon;timestamp;temperature;humidity
12329;DHT22;6230;52.390;10.256;2023-05-07T00:01:33;14.40;65.90
12329;DHT22;6230;52.390;10.256;2023-05-07T00:03:58;14.40;65.90
12329;DHT22;6230;52.390;10.256;2023-05-07T00:06:24;14.40;65.90
12329;DHT22;6230;52.390;10.256;2023-05-07T00:08:51;14.40;65.90
12329;DHT22;6230;52.390;10.256;2023-05-07T00:11:16;14.40;65.90
12329;DHT22;6230;52.390;10.256;2023-05-07T00:13:42;14.40;65.90
12329;DHT22;6230;52.390;10.256;2023-05-07T00:16:08;14.40;66.00
12329;DHT22;6230;52.390;10.256;2023-05-07T00:18:33;14.30;66.20
12329;DHT22;6230;52.390;10.256;2023-05-07T00:20:59;14.20;66.20
12329;DHT22;6230;52.390;10.256;2023-05-07T00:23:24;14.20;66.40
12329;DHT22;6230;52.390;10.256;2023-05-07T00:25:50;14.20;66.50
12329;DHT22;6230;52.390;10.256;2023-05-07T00:28:15;14.20;66.50
12329;DHT22;6230;52.390;10.256;2023-05-07T00:30:41;14.20;66.50
12329;DHT22;6230;52.390;10.256;2023-05-07T00:33:06;14.20;66.60
12329;DHT22;6230;52.390;10.256;2023-05-07T00:35:32;14.20;66.50
12329;DHT22;6230;52.390;10.256;2023-05-07T00:37:57;14.10;66.60
12329;DHT22;6230;52.390;10.256;2023-05-07T00:40:23;14.10;66.70
12329;DHT22;6230;52.390;10.256;2023-05-07T00:42:49;14.10;67.00
12329;DHT22;6230;52.390;10.256;2023-05-07T00:45:15;14.10;67.10
12329;DHT22;6230;52.390;10.256;2023-05-07T00:47:42;14.00;67.10
12329;DHT22;6230;52.390;10.256;2023-05-07T00:50:08;14.00;67.30
12329;DHT22;6230;52.390;10.256;2023-05-07T00:52:36;14.00;67.30
12329;DHT22;6230;52.390;10.256;2023-05-07T00:55:05;14.00;67.30
12329;DHT22;6230;52.390;10.256;2023-05-07T00:57:40;14.00;67.50
12329;DHT22;6230;52.390;10.256;2023-05-07T01:00:06;14.00;67.50
12329;DHT22;6230;52.390;10.256;2023-05-07T01:02:34;14.00;67.60
12329;DHT22;6230;52.390;10.256;2023-05-07T01:05:00;14.00;67.40
12329;DHT22;6230;52.390;10.256;2023-05-07T01:07:27;14.10;67.50
12329;DHT22;6230;52.390;10.256;2023-05-07T01:09:52;14.10;67.50
12329;DHT22;6230;52.390;10.256;2023-05-07T01:12:19;14.10;67.40
12329;DHT22;6230;52.390;10.256;2023-05-07T01:14:44;14.10;67.40
12329;DHT22;6230;52.390;10.256;2023-05-07T01:17:10;14.10;67.40
12329;DHT22;6230;52.390;10.256;2023-05-07T01:19:35;14.10;67.50
12329;DHT22;6230;52.390;10.256;2023-05-07T01:22:04;14.10;67.60
12329;DHT22;6230;52.390;10.256;2023-05-07T01:24:32;14.10;67.60
12329;DHT22;6230;52.390;10.256;2023-05-07T01:26:58;14.10;67.50
12329;DHT22;6230;52.390;10.256;2023-05-07T01:29:23;14.10;67.40
12329;DHT22;6230;52.390;10.256;2023-05-07T01:31:50;14.10;67.30
12329;DHT22;6230;52.390;10.256;2023-05-07T01:34:17;14.10;67.50
12329;DHT22;6230;52.390;10.256;2023-05-07T01:36:43;14.00;67.50
12329;DHT22;6230;52.390;10.256;2023-05-07T01:39:10;14.00;67.60
12329;DHT22;6230;52.390;10.256;2023-05-07T01:41:35;13.90;67.60
12329;DHT22;6230;52.390;10.256;2023-05-07T01:44:01;13.90;67.70
12329;DHT22;6230;52.390;10.256;2023-05-07T01:46:28;13.90;67.70
12329;DHT22;6230;52.390;10.256;2023-05-07T01:48:55;13.90;67.70
12329;DHT22;6230;52.390;10.256;2023-05-07T01:51:21;13.90;67.60
12329;DHT22;6230;52.390;10.256;2023-05-07T01:53:47;13.90;67.60
12329;DHT22;6230;52.390;10.256;2023-05-07T01:56:16;13.90;67.60
12329;DHT22;6230;52.390;10.256;2023-05-07T01:58:42;13.80;67.90
12329;DHT22;6230;52.390;10.256;2023-05-07T02:01:08;13.80;67.50
12329;DHT22;6230;52.390;10.256;2023-05-07T02:03:33;13.80;67.40
12329;DHT22;6230;52.390;10.256;2023-05-07T02:05:59;13.90;67.50
12329;DHT22;6230;52.390;10.256;2023-05-07T02:08:24;13.90;67.40
12329;DHT22;6230;52.390;10.256;2023-05-07T02:10:50;13.80;67.40
12329;DHT22;6230;52.390;10.256;2023-05-07T02:13:16;13.80;67.70
12329;DHT22;6230;52.390;10.256;2023-05-07T02:15:42;13.70;67.90
12329;DHT22;6230;52.390;10.256;2023-05-07T02:18:08;13.60;67.90
12329;DHT22;6230;52.390;10.256;2023-05-07T02:20:34;13.60;68.10
12329;DHT22;6230;52.390;10.256;2023-05-07T02:23:00;13.60;68.10
12329;DHT22;6230;52.390;10.256;2023-05-07T02:25:25;13.60;68.10
12329;DHT22;6230;52.390;10.256;2023-05-07T02:27:51;13.50;68.00
12329;DHT22;6230;52.390;10.256;2023-05-07T02:30:17;13.60;68.30
12329;DHT22;6230;52.390;10.256;2023-05-07T02:32:42;13.50;68.50
12329;DHT22;6230;52.390;10.256;2023-05-07T02:35:08;13.50;68.70
12329;DHT22;6230;52.390;10.256;2023-05-07T02:37:33;13.40;68.60
12329;DHT22;6230;52.390;10.256;2023-05-07T02:39:59;13.50;68.50
12329;DHT22;6230;52.390;10.256;2023-05-07T02:42:24;13.50;68.70
12329;DHT22;6230;52.390;10.256;2023-05-07T02:44:50;13.50;68.60
12329;DHT22;6230;52.390;10.256;2023-05-07T02:47:15;13.50;68.50
12329;DHT22;6230;52.390;10.256;2023-05-07T02:49:41;13.50;68.50
12329;DHT22;6230;52.390;10.256;2023-05-07T02:52:07;13.50;68.60
12329;DHT22;6230;52.390;10.256;2023-05-07T02:54:33;13.40;68.60
12329;DHT22;6230;52.390;10.256;2023-05-07T02:56:58;13.40;68.50
12329;DHT22;6230;52.390;10.256;2023-05-07T02:59:25;13.50;68.40
12329;DHT22;6230;52.390;10.256;2023-05-07T03:01:51;13.50;68.40
12329;DHT22;6230;52.390;10.256;2023-05-07T03:04:17;13.50;68.50
12329;DHT22;6230;52.390;10.256;2023-05-07T03:06:42;13.50;68.50
12329;DHT22;6230;52.390;10.256;2023-05-07T03:09:08;13.40;68.70
12329;DHT22;6230;52.390;10.256;2023-05-07T03:11:34;13.40;68.80
12329;DHT22;6230;52.390;10.256;2023-05-07T03:14:01;13.50;68.70
12329;DHT22;6230;52.390;10.256;2023-05-07T03:16:26;13.50;68.80
12329;DHT22;6230;52.390;10.256;2023-05-07T03:18:52;13.50;68.70
12329;DHT22;6230;52.390;10.256;2023-05-07T03:21:18;13.40;68.70
12329;DHT22;6230;52.390;10.256;2023-05-07T03:23:43;13.40;68.90
12329;DHT22;6230;52.390;10.256;2023-05-07T03:26:09;13.40;68.90
12329;DHT22;6230;52.390;10.256;2023-05-07T03:28:34;13.30;69.00
12329;DHT22;6230;52.390;10.256;2023-05-07T03:31:00;13.30;69.20
12329;DHT22;6230;52.390;10.256;2023-05-07T03:33:26;13.30;69.20
12329;DHT22;6230;52.390;10.256;2023-05-07T03:35:52;13.20;69.40
12329;DHT22;6230;52.390;10.256;2023-05-07T03:38:18;13.20;69.50
12329;DHT22;6230;52.390;10.256;2023-05-07T03:40:43;13.20;69.50
12329;DHT22;6230;52.390;10.256;2023-05-07T03:43:09;13.20;69.40
12329;DHT22;6230;52.390;10.256;2023-05-07T03:45:35;13.20;69.40
12329;DHT22;6230;52.390;10.256;2023-05-07T03:48:00;13.20;69.40
12329;DHT22;6230;52.390;10.256;2023-05-07T03:50:26;13.20;69.20
12329;DHT22;6230;52.390;10.256;2023-05-07T03:52:51;13.20;69.20
12329;DHT22;6230;52.390;10.256;2023-05-07T03:55:17;13.20;69.10
12329;DHT22;6230;52.390;10.256;2023-05-07T03:57:43;13.20;69.10
12329;DHT22;6230;52.390;10.256;2023-05-07T04:00:09;13.20;69.10
12329;DHT22;6230;52.390;10.256;2023-05-07T04:02:34;13.20;69.10
12329;DHT22;6230;52.390;10.256;2023-05-07T04:05:00;13.20;69.10
12329;DHT22;6230;52.390;10.256;2023-05-07T04:07:26;13.20;69.00
12329;DHT22;6230;52.390;10.256;2023-05-07T04:09:52;13.20;69.80
12329;DHT22;6230;52.390;10.256;2023-05-07T04:12:18;13.20;69.00
12329;DHT22;6230;52.390;10.256;2023-05-07T04:14:44;13.20;69.20
12329;DHT22;6230;52.390;10.256;2023-05-07T04:17:10;13.20;69.50
12329;DHT22;6230;52.390;10.256;2023-05-07T04:19:36;13.00;69.50
12329;DHT22;6230;52.390;10.256;2023-05-07T04:22:01;13.00;69.60
12329;DHT22;6230;52.390;10.256;2023-05-07T04:24:27;13.00;69.60
12329;DHT22;6230;52.390;10.256;2023-05-07T04:26:52;12.90;69.50
12329;DHT22;6230;52.390;10.256;2023-05-07T04:29:18;12.90;69.40
12329;DHT22;6230;52.390;10.256;2023-05-07T04:31:44;13.00;70.00
12329;DHT22;6230;52.390;10.256;2023-05-07T04:34:10;13.00;69.10
12329;DHT22;6230;52.390;10.256;2023-05-07T04:36:39;13.00;69.10
12329;DHT22;6230;52.390;10.256;2023-05-07T04:39:05;13.00;69.00
12329;DHT22;6230;52.390;10.256;2023-05-07T04:41:31;12.90;68.90
12329;DHT22;6230;52.390;10.256;2023-05-07T04:43:56;12.80;68.80
12329;DHT22;6230;52.390;10.256;2023-05-07T04:46:24;12.80;68.90
12329;DHT22;6230;52.390;10.256;2023-05-07T04:48:50;12.80;68.80
12329;DHT22;6230;52.390;10.256;2023-05-07T04:51:15;12.80;68.90
12329;DHT22;6230;52.390;10.256;2023-05-07T04:53:41;12.80;68.90
12329;DHT22;6230;52.390;10.256;2023-05-07T04:56:08;12.80;68.90
12329;DHT22;6230;52.390;10.256;2023-05-07T04:58:33;12.90;68.90
12329;DHT22;6230;52.390;10.256;2023-05-07T05:00:59;12.90;68.80
12329;DHT22;6230;52.390;10.256;2023-05-07T05:03:25;12.90;68.70
12329;DHT22;6230;52.390;10.256;2023-05-07T05:05:51;12.90;68.70
12329;DHT22;6230;52.390;10.256;2023-05-07T05:08:18;12.90;68.70
12329;DHT22;6230;52.390;10.256;2023-05-07T05:10:43;12.90;68.60
12329;DHT22;6230;52.390;10.256;2023-05-07T05:13:09;12.90;68.50
12329;DHT22;6230;52.390;10.256;2023-05-07T05:15:35;12.90;68.50
12329;DHT22;6230;52.390;10.256;2023-05-07T05:18:01;12.90;68.40
12329;DHT22;6230;52.390;10.256;2023-05-07T05:20:26;13.00;68.50
12329;DHT22;6230;52.390;10.256;2023-05-07T05:22:52;12.90;68.40
12329;DHT22;6230;52.390;10.256;2023-05-07T05:25:17;12.90;68.60
12329;DHT22;6230;52.390;10.256;2023-05-07T05:27:43;12.90;68.70
12329;DHT22;6230;52.390;10.256;2023-05-07T05:30:09;12.90;68.80
12329;DHT22;6230;52.390;10.256;2023-05-07T05:32:35;12.90;68.80
12329;DHT22;6230;52.390;10.256;2023-05-07T05:35:00;12.90;68.70
12329;DHT22;6230;52.390;10.256;2023-05-07T05:37:26;12.90;68.60
12329;DHT22;6230;52.390;10.256;2023-05-07T05:39:52;13.00;68.60
12329;DHT22;6230;52.390;10.256;2023-05-07T05:42:18;13.00;68.50
12329;DHT22;6230;52.390;10.256;2023-05-07T05:44:43;13.00;68.50
12329;DHT22;6230;52.390;10.256;2023-05-07T05:47:09;13.00;68.50
12329;DHT22;6230;52.390;10.256;2023-05-07T05:49:34;13.10;68.40
12329;DHT22;6230;52.390;10.256;2023-05-07T05:52:00;13.10;68.40
12329;DHT22;6230;52.390;10.256;2023-05-07T05:54:25;13.10;68.20
12329;DHT22;6230;52.390;10.256;2023-05-07T05:56:51;13.10;68.00
12329;DHT22;6230;52.390;10.256;2023-05-07T05:59:17;13.10;67.90
12329;DHT22;6230;52.390;10.256;2023-05-07T06:01:42;13.10;67.90
12329;DHT22;6230;52.390;10.256;2023-05-07T06:04:08;13.10;68.00
12329;DHT22;6230;52.390;10.256;2023-05-07T06:06:33;13.20;68.70
12329;DHT22;6230;52.390;10.256;2023-05-07T06:08:59;13.20;67.80
12329;DHT22;6230;52.390;10.256;2023-05-07T06:11:24;13.20;67.70
12329;DHT22;6230;52.390;10.256;2023-05-07T06:13:50;13.20;67.60
12329;DHT22;6230;52.390;10.256;2023-05-07T06:16:16;13.20;67.60
12329;DHT22;6230;52.390;10.256;2023-05-07T06:18:41;13.20;67.70
12329;DHT22;6230;52.390;10.256;2023-05-07T06:21:07;13.20;67.70
12329;DHT22;6230;52.390;10.256;2023-05-07T06:23:32;13.20;67.70
12329;DHT22;6230;52.390;10.256;2023-05-07T06:25:58;13.20;67.60
12329;DHT22;6230;52.390;10.256;2023-05-07T06:28:23;13.30;67.70
12329;DHT22;6230;52.390;10.256;2023-05-07T06:30:49;13.30;67.60
12329;DHT22;6230;52.390;10.256;2023-05-07T06:33:15;13.40;67.60
12329;DHT22;6230;52.390;10.256;2023-05-07T06:35:41;13.40;67.40
12329;DHT22;6230;52.390;10.256;2023-05-07T06:38:06;13.30;67.50
12329;DHT22;6230;52.390;10.256;2023-05-07T06:40:32;13.30;67.40
12329;DHT22;6230;52.390;10.256;2023-05-07T06:42:57;13.30;67.50
12329;DHT22;6230;52.390;10.256;2023-05-07T06:45:23;13.30;67.60
12329;DHT22;6230;52.390;10.256;2023-05-07T06:47:50;13.30;67.60
12329;DHT22;6230;52.390;10.256;2023-05-07T06:50:16;13.30;67.60
12329;DHT22;6230;52.390;10.256;2023-05-07T06:52:42;13.30;67.60
12329;DHT22;6230;52.390;10.256;2023-05-07T06:55:08;13.30;67.70
12329;DHT22;6230;52.390;10.256;2023-05-07T06:57:34;13.40;67.70
12329;DHT22;6230;52.390;10.256;2023-05-07T07:00:00;13.40;67.70
12329;DHT22;6230;52.390;10.256;2023-05-07T07:02:25;13.50;67.60
12329;DHT22;6230;52.390;10.256;2023-05-07T07:04:51;13.50;67.20
12329;DHT22;6230;52.390;10.256;2023-05-07T07:07:16;13.50;67.30
12329;DHT22;6230;52.390;10.256;2023-05-07T07:09:42;13.50;67.30
12329;DHT22;6230;52.390;10.256;2023-05-07T07:12:07;13.50;67.40
12329;DHT22;6230;52.390;10.256;2023-05-07T07:14:33;13.50;67.40
12329;DHT22;6230;52.390;10.256;2023-05-07T07:16:58;13.50;67.30
12329;DHT22;6230;52.390;10.256;2023-05-07T07:19:25;13.50;67.30
12329;DHT22;6230;52.390;10.256;2023-05-07T07:21:51;13.60;68.00
12329;DHT22;6230;52.390;10.256;2023-05-07T07:24:16;13.60;67.10
12329;DHT22;6230;52.390;10.256;2023-05-07T07:26:46;13.70;67.00
12329;DHT22;6230;52.390;10.256;2023-05-07T07:29:11;13.70;66.90
12329;DHT22;6230;52.390;10.256;2023-05-07T07:31:37;13.70;66.90
12329;DHT22;6230;52.390;10.256;2023-05-07T07:34:02;13.60;66.80
12329;DHT22;6230;52.390;10.256;2023-05-07T07:36:28;13.60;66.90
12329;DHT22;6230;52.390;10.256;2023-05-07T07:38:54;13.60;66.90
12329;DHT22;6230;52.390;10.256;2023-05-07T07:41:19;13.60;66.90
12329;DHT22;6230;52.390;10.256;2023-05-07T07:43:45;13.70;66.70
12329;DHT22;6230;52.390;10.256;2023-05-07T07:46:12;13.60;66.70
12329;DHT22;6230;52.390;10.256;2023-05-07T07:48:37;13.60;66.80
12329;DHT22;6230;52.390;10.256;2023-05-07T07:51:03;13.60;66.80
12329;DHT22;6230;52.390;10.256;2023-05-07T07:53:28;13.60;66.80
12329;DHT22;6230;52.390;10.256;2023-05-07T07:55:54;13.70;66.90
12329;DHT22;6230;52.390;10.256;2023-05-07T07:58:20;13.70;66.80
12329;DHT22;6230;52.390;10.256;2023-05-07T08:00:47;13.80;66.80
12329;DHT22;6230;52.390;10.256;2023-05-07T08:03:13;13.80;66.60
12329;DHT22;6230;52.390;10.256;2023-05-07T08:05:39;13.90;66.70
12329;DHT22;6230;52.390;10.256;2023-05-07T08:08:05;13.90;66.60
12329;DHT22;6230;52.390;10.256;2023-05-07T08:10:31;14.00;66.40
12329;DHT22;6230;52.390;10.256;2023-05-07T08:13:00;14.10;66.40
12329;DHT22;6230;52.390;10.256;2023-05-07T08:15:25;14.10;66.20
12329;DHT22;6230;52.390;10.256;2023-05-07T08:17:51;14.00;66.10
12329;DHT22;6230;52.390;10.256;2023-05-07T08:20:16;14.10;65.90
12329;DHT22;6230;52.390;10.256;2023-05-07T08:22:42;14.00;65.80
12329;DHT22;6230;52.390;10.256;2023-05-07T08:25:08;14.00;65.90
12329;DHT22;6230;52.390;10.256;2023-05-07T08:27:34;14.00;65.90
12329;DHT22;6230;52.390;10.256;2023-05-07T08:29:59;13.90;65.90
12329;DHT22;6230;52.390;10.256;2023-05-07T08:32:25;13.80;66.10
12329;DHT22;6230;52.390;10.256;2023-05-07T08:34:50;13.80;66.40
12329;DHT22;6230;52.390;10.256;2023-05-07T08:37:16;13.80;66.40
12329;DHT22;6230;52.390;10.256;2023-05-07T08:39:42;13.90;66.50
12329;DHT22;6230;52.390;10.256;2023-05-07T08:42:09;14.00;66.40
12329;DHT22;6230;52.390;10.256;2023-05-07T08:44:38;14.00;66.10
12329;DHT22;6230;52.390;10.256;2023-05-07T08:47:06;14.10;65.90
12329;DHT22;6230;52.390;10.256;2023-05-07T08:49:33;14.20;65.70
12329;DHT22;6230;52.390;10.256;2023-05-07T08:51:59;14.20;65.60
12329;DHT22;6230;52.390;10.256;2023-05-07T08:54:25;14.20;65.50
12329;DHT22;6230;52.390;10.256;2023-05-07T08:56:51;14.20;65.50
12329;DHT22;6230;52.390;10.256;2023-05-07T08:59:17;14.20;65.30
12329;DHT22;6230;52.390;10.256;2023-05-07T09:01:42;14.20;65.50
12329;DHT22;6230;52.390;10.256;2023-05-07T09:04:08;14.30;65.50
12329;DHT22;6230;52.390;10.256;2023-05-07T09:06:34;14.40;65.30
12329;DHT22;6230;52.390;10.256;2023-05-07T09:09:00;14.40;64.90
12329;DHT22;6230;52.390;10.256;2023-05-07T09:11:27;14.40;64.80
12329;DHT22;6230;52.390;10.256;2023-05-07T09:13:56;14.40;64.30
12329;DHT22;6230;52.390;10.256;2023-05-07T09:16:23;14.40;64.40
12329;DHT22;6230;52.390;10.256;2023-05-07T09:18:51;14.40;64.40
12329;DHT22;6230;52.390;10.256;2023-05-07T09:21:18;14.40;64.40
12329;DHT22;6230;52.390;10.256;2023-05-07T09:23:44;14.40;64.20
12329;DHT22;6230;52.390;10.256;2023-05-07T09:26:09;14.50;64.10
12329;DHT22;6230;52.390;10.256;2023-05-07T09:28:40;14.50;64.20
12329;DHT22;6230;52.390;10.256;2023-05-07T09:31:10;14.60;64.20
12329;DHT22;6230;52.390;10.256;2023-05-07T09:33:37;14.60;64.00
12329;DHT22;6230;52.390;10.256;2023-05-07T09:36:04;14.60;64.00
12329;DHT22;6230;52.390;10.256;2023-05-07T09:38:31;14.70;64.00
12329;DHT22;6230;52.390;10.256;2023-05-07T09:41:12;14.80;64.00
12329;DHT22;6230;52.390;10.256;2023-05-07T09:43:38;14.80;63.90
12329;DHT22;6230;52.390;10.256;2023-05-07T09:46:12;14.90;63.70
12329;DHT22;6230;52.390;10.256;2023-05-07T09:48:40;14.90;63.30
12329;DHT22;6230;52.390;10.256;2023-05-07T09:51:18;14.90;63.30
12329;DHT22;6230;52.390;10.256;2023-05-07T09:53:48;14.90;63.30
12329;DHT22;6230;52.390;10.256;2023-05-07T09:56:14;14.90;63.40
12329;DHT22;6230;52.390;10.256;2023-05-07T09:58:41;15.00;63.40
12329;DHT22;6230;52.390;10.256;2023-05-07T10:01:07;15.00;63.00
12329;DHT22;6230;52.390;10.256;2023-05-07T10:03:33;15.00;63.00
12329;DHT22;6230;52.390;10.256;2023-05-07T10:06:00;15.00;63.00
12329;DHT22;6230;52.390;10.256;2023-05-07T10:08:26;15.00;62.90
12329;DHT22;6230;52.390;10.256;2023-05-07T10:10:52;15.00;63.00
12329;DHT22;6230;52.390;10.256;2023-05-07T10:13:19;14.90;62.90
12329;DHT22;6230;52.390;10.256;2023-05-07T10:15:45;15.00;63.20
12329;DHT22;6230;52.390;10.256;2023-05-07T10:18:12;15.00;63.20
12329;DHT22;6230;52.390;10.256;2023-05-07T10:20:39;15.10;63.00
12329;DHT22;6230;52.390;10.256;2023-05-07T10:23:05;15.10;62.80
12329;DHT22;6230;52.390;10.256;2023-05-07T10:25:32;15.20;62.70
12329;DHT22;6230;52.390;10.256;2023-05-07T10:28:04;15.30;62.70
12329;DHT22;6230;52.390;10.256;2023-05-07T10:31:15;15.30;62.10
12329;DHT22;6230;52.390;10.256;2023-05-07T10:33:37;15.30;62.30
12329;DHT22;6230;52.390;10.256;2023-05-07T10:36:05;15.30;62.30
12329;DHT22;6230;52.390;10.256;2023-05-07T10:38:32;15.40;62.70
12329;DHT22;6230;52.390;10.256;2023-05-07T10:40:57;15.40;62.60
12329;DHT22;6230;52.390;10.256;2023-05-07T10:43:23;15.50;62.30
12329;DHT22;6230;52.390;10.256;2023-05-07T10:46:15;15.60;61.70
12329;DHT22;6230;52.390;10.256;2023-05-07T10:51:29;15.80;61.90
12329;DHT22;6230;52.390;10.256;2023-05-07T10:56:43;16.00;61.50
12329;DHT22;6230;52.390;10.256;2023-05-07T11:01:58;16.00;60.50
12329;DHT22;6230;52.390;10.256;2023-05-07T11:04:25;15.90;60.40
12329;DHT22;6230;52.390;10.256;2023-05-07T11:15:10;15.80;60.80
12329;DHT22;6230;52.390;10.256;2023-05-07T11:17:56;15.70;60.50
12329;DHT22;6230;52.390;10.256;2023-05-07T11:20:57;15.60;60.70
12329;DHT22;6230;52.390;10.256;2023-05-07T11:26:04;15.60;61.00
12329;DHT22;6230;52.390;10.256;2023-05-07T11:28:35;15.60;60.90
12329;DHT22;6230;52.390;10.256;2023-05-07T11:31:02;15.60;60.70
12329;DHT22;6230;52.390;10.256;2023-05-07T11:33:29;15.60;61.40
12329;DHT22;6230;52.390;10.256;2023-05-07T11:35:56;15.60;60.60
12329;DHT22;6230;52.390;10.256;2023-05-07T11:38:22;15.60;60.60
12329;DHT22;6230;52.390;10.256;2023-05-07T11:40:58;15.60;60.30
12329;DHT22;6230;52.390;10.256;2023-05-07T11:43:26;15.70;60.40
12329;DHT22;6230;52.390;10.256;2023-05-07T11:45:52;15.70;60.20
12329;DHT22;6230;52.390;10.256;2023-05-07T11:48:17;15.70;60.30
12329;DHT22;6230;52.390;10.256;2023-05-07T11:51:02;15.80;60.60
12329;DHT22;6230;52.390;10.256;2023-05-07T11:53:39;15.90;60.50
12329;DHT22;6230;52.390;10.256;2023-05-07T11:56:13;16.00;60.10
12329;DHT22;6230;52.390;10.256;2023-05-07T11:58:40;16.00;59.90
12329;DHT22;6230;52.390;10.256;2023-05-07T12:01:08;16.10;60.20
12329;DHT22;6230;52.390;10.256;2023-05-07T12:03:39;16.10;59.90
12329;DHT22;6230;52.390;10.256;2023-05-07T12:06:08;16.10;59.60
12329;DHT22;6230;52.390;10.256;2023-05-07T12:08:37;16.10;59.70
12329;DHT22;6230;52.390;10.256;2023-05-07T12:11:03;16.10;59.70
12329;DHT22;6230;52.390;10.256;2023-05-07T12:13:32;16.20;59.90
12329;DHT22;6230;52.390;10.256;2023-05-07T12:15:57;16.20;59.80
12329;DHT22;6230;52.390;10.256;2023-05-07T12:18:23;16.30;59.80
12329;DHT22;6230;52.390;10.256;2023-05-07T12:20:50;16.30;59.80
12329;DHT22;6230;52.390;10.256;2023-05-07T12:23:16;16.40;59.80
12329;DHT22;6230;52.390;10.256;2023-05-07T12:25:43;16.40;59.70
12329;DHT22;6230;52.390;10.256;2023-05-07T12:28:16;16.50;59.70
12329;DHT22;6230;52.390;10.256;2023-05-07T12:30:43;16.50;59.50
12329;DHT22;6230;52.390;10.256;2023-05-07T12:33:09;16.50;59.50
12329;DHT22;6230;52.390;10.256;2023-05-07T12:35:40;16.50;59.60
12329;DHT22;6230;52.390;10.256;2023-05-07T12:38:14;16.60;59.60
12329;DHT22;6230;52.390;10.256;2023-05-07T12:40:55;16.60;59.50
12329;DHT22;6230;52.390;10.256;2023-05-07T12:43:24;16.60;59.20
12329;DHT22;6230;52.390;10.256;2023-05-07T12:45:51;16.50;59.00
12329;DHT22;6230;52.390;10.256;2023-05-07T12:48:19;16.30;58.90
12329;DHT22;6230;52.390;10.256;2023-05-07T12:50:45;16.20;59.20
12329;DHT22;6230;52.390;10.256;2023-05-07T12:53:25;16.20;59.60
12329;DHT22;6230;52.390;10.256;2023-05-07T12:55:53;16.20;59.70
12329;DHT22;6230;52.390;10.256;2023-05-07T12:58:27;16.30;59.80
12329;DHT22;6230;52.390;10.256;2023-05-07T13:00:54;16.30;59.50
12329;DHT22;6230;52.390;10.256;2023-05-07T13:03:27;16.40;59.50
12329;DHT22;6230;52.390;10.256;2023-05-07T13:05:53;16.50;59.60
12329;DHT22;6230;52.390;10.256;2023-05-07T13:08:33;16.50;59.30
12329;DHT22;6230;52.390;10.256;2023-05-07T13:10:59;16.50;58.70
12329;DHT22;6230;52.390;10.256;2023-05-07T13:13:32;16.50;58.90
12329;DHT22;6230;52.390;10.256;2023-05-07T13:15:59;16.50;58.90
12329;DHT22;6230;52.390;10.256;2023-05-07T13:18:25;16.60;58.90
12329;DHT22;6230;52.390;10.256;2023-05-07T13:20:52;16.60;58.60
12329;DHT22;6230;52.390;10.256;2023-05-07T13:23:18;16.60;58.40
12329;DHT22;6230;52.390;10.256;2023-05-07T13:25:43;16.60;58.60
12329;DHT22;6230;52.390;10.256;2023-05-07T13:28:09;16.60;58.20
12329;DHT22;6230;52.390;10.256;2023-05-07T13:30:35;16.50;58.50
12329;DHT22;6230;52.390;10.256;2023-05-07T13:33:00;16.60;58.60
12329;DHT22;6230;52.390;10.256;2023-05-07T13:35:26;16.70;58.60
12329;DHT22;6230;52.390;10.256;2023-05-07T13:37:52;16.80;58.50
12329;DHT22;6230;52.390;10.256;2023-05-07T13:40:18;16.90;57.80
12329;DHT22;6230;52.390;10.256;2023-05-07T13:42:44;16.80;58.00
12329;DHT22;6230;52.390;10.256;2023-05-07T13:45:10;16.80;57.80
12329;DHT22;6230;52.390;10.256;2023-05-07T13:47:36;16.80;57.80
12329;DHT22;6230;52.390;10.256;2023-05-07T13:50:01;16.80;58.10
12329;DHT22;6230;52.390;10.256;2023-05-07T13:52:27;16.80;58.00
12329;DHT22;6230;52.390;10.256;2023-05-07T13:54:52;16.90;57.80
12329;DHT22;6230;52.390;10.256;2023-05-07T13:57:18;17.00;58.20
12329;DHT22;6230;52.390;10.256;2023-05-07T13:59:44;17.20;57.70
12329;DHT22;6230;52.390;10.256;2023-05-07T14:02:09;17.20;57.40
12329;DHT22;6230;52.390;10.256;2023-05-07T14:04:35;17.40;57.40
12329;DHT22;6230;52.390;10.256;2023-05-07T14:07:01;17.50;57.30
12329;DHT22;6230;52.390;10.256;2023-05-07T14:09:26;17.60;57.30
12329;DHT22;6230;52.390;10.256;2023-05-07T14:11:52;17.80;57.00
12329;DHT22;6230;52.390;10.256;2023-05-07T14:14:18;17.80;56.90
12329;DHT22;6230;52.390;10.256;2023-05-07T14:16:44;17.90;56.70
12329;DHT22;6230;52.390;10.256;2023-05-07T14:19:11;17.80;56.40
12329;DHT22;6230;52.390;10.256;2023-05-07T14:21:36;17.80;56.30
12329;DHT22;6230;52.390;10.256;2023-05-07T14:24:02;17.80;56.40
12329;DHT22;6230;52.390;10.256;2023-05-07T14:26:28;17.80;56.50
12329;DHT22;6230;52.390;10.256;2023-05-07T14:28:53;17.80;56.40
12329;DHT22;6230;52.390;10.256;2023-05-07T14:31:21;17.90;55.90
12329;DHT22;6230;52.390;10.256;2023-05-07T14:33:46;17.80;55.40
12329;DHT22;6230;52.390;10.256;2023-05-07T14:36:12;17.70;55.80
12329;DHT22;6230;52.390;10.256;2023-05-07T14:38:37;17.70;56.10
12329;DHT22;6230;52.390;10.256;2023-05-07T14:41:03;17.70;56.30
12329;DHT22;6230;52.390;10.256;2023-05-07T14:43:29;17.70;56.10
12329;DHT22;6230;52.390;10.256;2023-05-07T14:45:54;17.60;56.00
12329;DHT22;6230;52.390;10.256;2023-05-07T14:48:20;17.60;56.20
12329;DHT22;6230;52.390;10.256;2023-05-07T14:50:47;17.50;56.00
12329;DHT22;6230;52.390;10.256;2023-05-07T14:53:13;17.40;56.30
12329;DHT22;6230;52.390;10.256;2023-05-07T14:55:38;17.30;56.10
12329;DHT22;6230;52.390;10.256;2023-05-07T14:58:04;17.30;56.50
12329;DHT22;6230;52.390;10.256;2023-05-07T15:00:31;17.30;56.40
12329;DHT22;6230;52.390;10.256;2023-05-07T15:03:05;17.30;56.50
12329;DHT22;6230;52.390;10.256;2023-05-07T15:05:32;17.30;56.30
12329;DHT22;6230;52.390;10.256;2023-05-07T15:07:57;17.30;56.40
12329;DHT22;6230;52.390;10.256;2023-05-07T15:10:23;17.30;56.20
12329;DHT22;6230;52.390;10.256;2023-05-07T15:12:49;17.20;56.20
12329;DHT22;6230;52.390;10.256;2023-05-07T15:15:14;17.20;56.30
12329;DHT22;6230;52.390;10.256;2023-05-07T15:17:40;17.20;56.10
12329;DHT22;6230;52.390;10.256;2023-05-07T15:20:06;17.20;56.30
12329;DHT22;6230;52.390;10.256;2023-05-07T15:22:32;17.10;56.00
12329;DHT22;6230;52.390;10.256;2023-05-07T15:24:58;17.10;56.40
12329;DHT22;6230;52.390;10.256;2023-05-07T15:27:24;17.00;56.30
12329;DHT22;6230;52.390;10.256;2023-05-07T15:29:49;17.00;56.40
12329;DHT22;6230;52.390;10.256;2023-05-07T15:32:15;16.90;56.30
12329;DHT22;6230;52.390;10.256;2023-05-07T15:34:41;16.80;56.40
12329;DHT22;6230;52.390;10.256;2023-05-07T15:37:06;16.80;56.80
12329;DHT22;6230;52.390;10.256;2023-05-07T15:39:32;16.80;57.00
12329;DHT22;6230;52.390;10.256;2023-05-07T15:41:57;16.90;57.20
12329;DHT22;6230;52.390;10.256;2023-05-07T15:44:23;17.00;57.20
12329;DHT22;6230;52.390;10.256;2023-05-07T15:46:53;17.10;57.00